Time;durP1;ratioP1;P1;durP2;ratioP2;P2;SDS_P1;SDS_P2;PMS_P1;PMS_P2;Temp;Humidity;BMP_temperature;BMP_pressure;BME280_temperature;BME280_humidity;BME280_pressure;Samples;Min_cycle;Max_cycle;Signal;HPM_P1;HPM_P2
2021/03/01 00:00:14;;;;;;;21.23;6.82;;;3.10;98.20;;;;;;5030078;28;20038;-61
2021/03/01 00:02:42;;;;;;;18.35;6.80;;;3.10;97.70;;;;;;5029505;28;20146;-61
2021/03/01 00:05:10;;;;;;;20.65;7.20;;;3.10;97.90;;;;;;5029558;28;20742;-61
2021/03/01 00:07:37;;;;;;;21.60;6.93;;;3.10;98.20;;;;;;5025626;28;20544;-61
2021/03/01 00:10:05;;;;;;;21.08;7.00;;;3.10;98.10;;;;;;5027882;28;20049;-62
2021/03/01 00:12:31;;;;;;;13.55;5.53;;;3.10;98.40;;;;;;5029034;28;20471;-61
2021/03/01 00:14:58;;;;;;;15.20;6.10;;;3.10;97.70;;;;;;5022700;28;20540;-60
2021/03/01 00:17:25;;;;;;;16.55;6.50;;;3.10;97.90;;;;;;5022358;28;20042;-60
2021/03/01 00:19:51;;;;;;;18.63;6.30;;;3.10;97.80;;;;;;5028126;28;20112;-61
2021/03/01 00:22:18;;;;;;;14.10;5.47;;;3.10;97.60;;;;;;5036602;28;20103;-61
2021/03/01 00:24:44;;;;;;;14.55;5.63;;;3.10;98.20;;;;;;5030056;28;20044;-61
2021/03/01 00:27:11;;;;;;;15.23;5.68;;;3.00;97.70;;;;;;5029844;28;20045;-61
2021/03/01 00:29:37;;;;;;;13.95;5.85;;;3.00;97.70;;;;;;5025901;28;20049;-61
2021/03/01 00:32:04;;;;;;;16.92;6.35;;;3.00;98.20;;;;;;5027361;28;20068;-61
2021/03/01 00:34:31;;;;;;;16.17;6.07;;;3.00;98.60;;;;;;5025111;28;20060;-61
2021/03/01 00:36:58;;;;;;;15.52;6.45;;;3.00;98.10;;;;;;5028811;28;20068;-61
2021/03/01 00:39:25;;;;;;;16.42;5.38;;;3.00;98.50;;;;;;5028944;28;20100;-61
2021/03/01 00:41:51;;;;;;;16.08;5.63;;;3.00;98.30;;;;;;5028685;28;20439;-61
2021/03/01 00:44:18;;;;;;;14.48;5.72;;;2.90;97.80;;;;;;5024805;28;20096;-61
2021/03/01 00:46:45;;;;;;;19.27;5.82;;;2.80;98.00;;;;;;5027656;28;20530;-61
2021/03/01 00:49:12;;;;;;;12.82;5.85;;;2.80;98.70;;;;;;5025668;28;20141;-61
2021/03/01 00:51:39;;;;;;;19.60;6.18;;;2.80;98.90;;;;;;5030265;28;20037;-61
2021/03/01 00:54:06;;;;;;;16.85;5.18;;;2.80;99.40;;;;;;5027669;28;20555;-60
2021/03/01 00:56:45;;;;;;;19.00;5.88;;;2.80;99.10;;;;;;5028113;28;20052;-61
2021/03/01 00:59:11;;;;;;;17.98;5.78;;;2.80;98.70;;;;;;5031100;28;20051;-61
2021/03/01 01:01:38;;;;;;;16.48;6.10;;;2.80;98.90;;;;;;5032404;28;20037;-61
2021/03/01 01:04:05;;;;;;;18.05;6.38;;;2.80;99.00;;;;;;5031555;28;20077;-61
2021/03/01 01:06:33;;;;;;;19.25;7.03;;;2.80;99.40;;;;;;5023468;28;20479;-62
2021/03/01 01:09:00;;;;;;;15.23;5.78;;;2.80;99.20;;;;;;5028159;28;20441;-61
2021/03/01 01:11:26;;;;;;;18.25;4.88;;;2.80;99.70;;;;;;5033144;28;20045;-61
2021/03/01 01:13:53;;;;;;;19.20;5.82;;;2.80;99.40;;;;;;5034834;28;20053;-61
2021/03/01 01:16:19;;;;;;;16.80;5.57;;;2.70;99.60;;;;;;5033354;28;20369;-61
2021/03/01 01:18:46;;;;;;;17.35;5.63;;;2.70;99.90;;;;;;5031337;28;20504;-61
2021/03/01 01:21:13;;;;;;;15.90;6.00;;;2.70;99.90;;;;;;5028353;28;20037;-61
2021/03/01 01:23:39;;;;;;;17.48;5.85;;;2.70;99.90;;;;;;5031399;28;20120;-60
2021/03/01 01:26:06;;;;;;;14.48;5.38;;;2.70;99.80;;;;;;5033098;28;20053;-61
2021/03/01 01:28:32;;;;;;;12.65;5.13;;;2.70;99.90;;;;;;5033150;28;20045;-61
2021/03/01 01:30:59;;;;;;;17.45;6.05;;;2.70;99.90;;;;;;5031981;28;20060;-61
2021/03/01 01:33:25;;;;;;;16.25;5.35;;;2.70;99.90;;;;;;5028687;28;20041;-60
2021/03/01 01:35:52;;;;;;;14.88;5.65;;;2.70;99.90;;;;;;5013015;28;20491;-61
2021/03/01 01:38:18;;;;;;;13.90;5.43;;;2.70;99.90;;;;;;5029941;28;20476;-61
2021/03/01 01:40:45;;;;;;;12.65;5.20;;;2.60;99.90;;;;;;5030249;28;20448;-60
2021/03/01 01:43:12;;;;;;;18.85;6.20;;;2.60;99.90;;;;;;5020331;28;20037;-61
2021/03/01 01:45:38;;;;;;;15.45;6.00;;;2.60;99.90;;;;;;5025204;28;20488;-61
2021/03/01 01:48:06;;;;;;;15.05;5.47;;;2.60;99.90;;;;;;5033824;28;20568;-60
2021/03/01 01:50:33;;;;;;;19.10;6.40;;;2.50;99.90;;;;;;5031785;28;20120;-61
2021/03/01 01:53:01;;;;;;;16.45;4.80;;;2.50;99.90;;;;;;5028319;28;20570;-61
2021/03/01 01:55:28;;;;;;;14.82;5.18;;;2.50;99.90;;;;;;5030197;28;20471;-60
2021/03/01 01:57:55;;;;;;;14.95;5.82;;;2.50;99.90;;;;;;5030324;28;20042;-61
2021/03/01 02:03:05;;;;;;;14.60;5.03;;;2.40;99.90;;;;;;5030518;28;20033;-60
2021/03/01 02:05:34;;;;;;;17.63;5.60;;;2.30;99.90;;;;;;5030805;28;20120;-61
2021/03/01 02:08:15;;;;;;;12.43;4.75;;;2.30;99.90;;;;;;5020153;28;20390;-61
2021/03/01 02:10:48;;;;;;;17.00;5.80;;;2.30;99.90;;;;;;5023340;28;20045;-61
2021/03/01 02:13:34;;;;;;;12.65;5.13;;;2.30;99.90;;;;;;5030711;28;20436;-61
2021/03/01 02:16:10;;;;;;;17.23;5.65;;;2.20;99.90;;;;;;5030730;28;20132;-61
2021/03/01 02:18:37;;;;;;;21.48;6.43;;;2.10;99.90;;;;;;5019820;28;20392;-61
2021/03/01 02:21:11;;;;;;;14.60;5.22;;;2.10;99.90;;;;;;5036594;28;20167;-61
2021/03/01 02:23:41;;;;;;;17.05;5.95;;;2.10;99.90;;;;;;5029493;28;20049;-61
2021/03/01 02:26:32;;;;;;;14.20;5.82;;;2.10;99.90;;;;;;5028971;28;20513;-61
2021/03/01 02:29:05;;;;;;;18.63;5.68;;;2.10;99.90;;;;;;5034346;28;20093;-61
2021/03/01 02:31:38;;;;;;;17.83;5.32;;;2.10;99.90;;;;;;5024555;28;20034;-60
2021/03/01 02:34:06;;;;;;;14.93;5.65;;;2.00;99.90;;;;;;5027835;28;20053;-61
2021/03/01 02:36:40;;;;;;;21.75;5.22;;;2.00;99.90;;;;;;5029373;28;20045;-61
2021/03/01 02:39:08;;;;;;;16.88;5.63;;;2.00;99.90;;;;;;5030127;28;20045;-61
2021/03/01 02:41:36;;;;;;;19.83;6.47;;;2.00;99.90;;;;;;5030060;28;20042;-61
2021/03/01 02:44:04;;;;;;;16.00;5.97;;;2.00;99.90;;;;;;5031916;28;20424;-60
2021/03/01 02:46:32;;;;;;;15.00;5.55;;;1.90;99.90;;;;;;5027951;28;20267;-61
2021/03/01 02:49:00;;;;;;;18.23;6.88;;;1.80;99.90;;;;;;5030621;28;20122;-62
2021/03/01 02:51:27;;;;;;;22.23;7.25;;;1.80;99.90;;;;;;5020978;28;20049;-61
2021/03/01 02:53:56;;;;;;;22.00;8.57;;;1.70;99.90;;;;;;5029712;28;20073;-61
2021/03/01 02:56:24;;;;;;;26.02;8.55;;;1.70;99.90;;;;;;5027384;28;20087;-61
2021/03/01 02:58:51;;;;;;;21.30;7.80;;;1.70;99.90;;;;;;5027137;28;20045;-61
2021/03/01 03:01:20;;;;;;;28.55;9.50;;;1.70;99.90;;;;;;5030153;28;20470;-60
2021/03/01 03:03:48;;;;;;;22.85;8.20;;;1.70;99.90;;;;;;5029604;28;20385;-61
2021/03/01 03:06:18;;;;;;;31.25;10.55;;;1.60;99.90;;;;;;5028797;28;20049;-61
2021/03/01 03:08:46;;;;;;;29.05;10.68;;;1.60;99.90;;;;;;5027878;28;20061;-61
2021/03/01 03:11:16;;;;;;;29.15;10.20;;;1.50;99.90;;;;;;5027288;28;20489;-61
2021/03/01 03:13:46;;;;;;;24.33;9.27;;;1.60;99.90;;;;;;5029984;28;20045;-60
2021/03/01 03:16:13;;;;;;;29.70;9.65;;;1.50;99.90;;;;;;5028261;28;20049;-61
2021/03/01 03:18:42;;;;;;;27.23;9.40;;;1.50;99.90;;;;;;5031156;28;20504;-61
2021/03/01 03:21:09;;;;;;;28.83;9.02;;;1.50;99.90;;;;;;5026302;28;20042;-61
2021/03/01 03:23:35;;;;;;;29.02;9.10;;;1.50;99.90;;;;;;5029313;28;20044;-61
2021/03/01 03:26:02;;;;;;;31.65;10.10;;;1.50;99.90;;;;;;5029577;28;20045;-61
2021/03/01 03:28:28;;;;;;;26.23;9.63;;;1.40;99.90;;;;;;5026860;28;20103;-61
2021/03/01 03:30:55;;;;;;;28.75;9.10;;;1.30;99.90;;;;;;5029876;28;20049;-61
2021/03/01 03:33:22;;;;;;;30.02;9.30;;;1.30;99.90;;;;;;5029563;28;20057;-61
2021/03/01 03:35:49;;;;;;;25.50;8.93;;;1.30;99.90;;;;;;5020823;28;20771;-61
2021/03/01 03:38:21;;;;;;;23.73;9.40;;;1.30;99.90;;;;;;5029318;28;20053;-61
2021/03/01 03:40:50;;;;;;;30.25;9.38;;;1.30;99.90;;;;;;5028148;28;20044;-61
2021/03/01 03:43:18;;;;;;;31.15;9.55;;;1.30;99.90;;;;;;5028907;28;20049;-60
2021/03/01 03:45:48;;;;;;;30.63;10.23;;;1.30;99.90;;;;;;5029549;28;20060;-60
2021/03/01 03:48:15;;;;;;;23.33;8.90;;;1.30;99.90;;;;;;5028730;28;20115;-61
2021/03/01 03:50:42;;;;;;;23.67;8.10;;;1.30;99.90;;;;;;5029074;28;20041;-61
2021/03/01 03:53:13;;;;;;;19.90;7.63;;;1.30;99.90;;;;;;5030329;28;20045;-61
2021/03/01 03:55:41;;;;;;;21.83;8.25;;;1.30;99.90;;;;;;5027196;28;20068;-61
2021/03/01 03:58:12;;;;;;;18.75;6.75;;;1.30;99.90;;;;;;5025468;28;20068;-61
2021/03/01 04:00:39;;;;;;;21.45;7.07;;;1.30;99.90;;;;;;5028716;28;20045;-61
2021/03/01 04:03:11;;;;;;;17.52;6.25;;;1.30;99.90;;;;;;5030677;28;20044;-61
2021/03/01 04:05:41;;;;;;;20.52;7.00;;;1.40;99.90;;;;;;5030617;28;20038;-61
2021/03/01 04:08:10;;;;;;;18.52;5.80;;;1.50;99.90;;;;;;5027106;28;20041;-61
2021/03/01 04:10:37;;;;;;;20.35;6.72;;;1.60;99.90;;;;;;5020375;28;20045;-61
2021/03/01 04:13:08;;;;;;;20.40;6.22;;;1.70;99.90;;;;;;5028822;28;20046;-61
2021/03/01 04:15:36;;;;;;;16.80;6.55;;;1.70;99.90;;;;;;5030235;28;20049;-61
2021/03/01 04:18:04;;;;;;;15.68;6.40;;;1.80;99.90;;;;;;5027978;28;20038;-61
2021/03/01 04:20:34;;;;;;;20.83;6.50;;;1.90;99.90;;;;;;5026205;28;20563;-61
2021/03/01 04:23:02;;;;;;;14.88;5.57;;;1.90;99.90;;;;;;5028370;28;20053;-61
2021/03/01 04:25:30;;;;;;;14.45;4.75;;;2.00;99.90;;;;;;5027032;28;20052;-61
2021/03/01 04:27:56;;;;;;;17.65;5.22;;;2.00;99.90;;;;;;5027258;28;20038;-60
2021/03/01 04:30:24;;;;;;;13.98;4.72;;;2.00;99.90;;;;;;5020701;28;20038;-61
2021/03/01 04:32:51;;;;;;;14.93;5.25;;;2.10;99.90;;;;;;5022262;28;20045;-61
2021/03/01 04:35:19;;;;;;;17.17;5.72;;;2.10;99.90;;;;;;5033094;28;20041;-61
2021/03/01 04:37:46;;;;;;;20.98;5.90;;;2.10;99.90;;;;;;5030764;28;20042;-61
2021/03/01 04:40:15;;;;;;;17.63;5.57;;;2.20;99.90;;;;;;5028864;28;20045;-61
2021/03/01 04:42:45;;;;;;;15.93;5.80;;;2.20;99.90;;;;;;5031256;28;20148;-60
2021/03/01 04:45:14;;;;;;;14.38;5.80;;;2.20;99.90;;;;;;5035180;28;20060;-61
2021/03/01 04:47:42;;;;;;;18.45;6.10;;;2.20;99.90;;;;;;5033187;28;20048;-62
2021/03/01 04:50:13;;;;;;;17.50;6.00;;;2.30;99.90;;;;;;5032325;28;20045;-61
2021/03/01 04:52:42;;;;;;;14.82;5.60;;;2.30;99.90;;;;;;5032546;28;20049;-60
2021/03/01 04:55:09;;;;;;;14.27;5.15;;;2.30;99.90;;;;;;5032687;28;20055;-61
2021/03/01 04:57:38;;;;;;;16.10;5.70;;;2.30;99.90;;;;;;5032720;28;20041;-61
2021/03/01 05:00:10;;;;;;;18.55;6.97;;;2.30;99.90;;;;;;5019590;28;20049;-61
2021/03/01 05:02:40;;;;;;;13.63;5.13;;;2.30;99.90;;;;;;5025694;28;20038;-61
2021/03/01 05:05:08;;;;;;;16.45;5.93;;;2.30;99.90;;;;;;5032616;28;20125;-61
2021/03/01 05:07:36;;;;;;;16.90;6.53;;;2.30;99.90;;;;;;5034385;28;20098;-61
2021/03/01 05:10:05;;;;;;;18.30;5.80;;;2.30;99.90;;;;;;5024439;28;20581;-61
2021/03/01 05:12:32;;;;;;;14.57;5.00;;;2.30;99.90;;;;;;5020170;28;20049;-61
2021/03/01 05:14:58;;;;;;;21.85;9.32;;;2.20;99.90;;;;;;5028303;28;20074;-61
2021/03/01 05:17:25;;;;;;;25.83;11.80;;;2.20;99.90;;;;;;5031861;28;20065;-61
2021/03/01 05:19:51;;;;;;;21.10;8.60;;;2.20;99.90;;;;;;5031472;28;20053;-60
2021/03/01 05:22:18;;;;;;;19.13;7.60;;;2.20;99.90;;;;;;5031603;28;20045;-61
2021/03/01 05:24:44;;;;;;;19.42;7.18;;;2.20;99.90;;;;;;5026980;28;20037;-61
2021/03/01 05:27:11;;;;;;;18.73;8.27;;;2.20;99.90;;;;;;5032575;28;20049;-61
2021/03/01 05:29:37;;;;;;;18.23;6.45;;;2.20;99.90;;;;;;5025950;28;20082;-61
2021/03/01 05:32:05;;;;;;;15.38;5.93;;;2.20;99.90;;;;;;5031802;28;20415;-61
2021/03/01 05:34:32;;;;;;;13.43;5.13;;;2.30;99.90;;;;;;5031275;28;20492;-61
2021/03/01 05:36:59;;;;;;;14.85;5.30;;;2.30;99.90;;;;;;5029713;28;20048;-61
2021/03/01 05:39:25;;;;;;;17.27;6.38;;;2.30;99.90;;;;;;5032565;28;20043;-61
2021/03/01 05:41:53;;;;;;;16.17;5.93;;;2.30;99.90;;;;;;5032208;28;20049;-61
2021/03/01 05:44:20;;;;;;;18.17;5.78;;;2.30;99.90;;;;;;5030024;28;20060;-61
2021/03/01 05:46:49;;;;;;;16.65;6.07;;;2.30;99.90;;;;;;5031203;28;20546;-61
2021/03/01 05:49:16;;;;;;;16.42;6.38;;;2.40;99.90;;;;;;5031631;28;20057;-61
2021/03/01 05:51:50;;;;;;;14.80;5.68;;;2.50;99.90;;;;;;5030630;28;20056;-61
2021/03/01 05:54:24;;;;;;;15.50;6.00;;;2.50;99.90;;;;;;5030414;28;20048;-61
2021/03/01 05:56:51;;;;;;;15.50;5.60;;;2.50;99.90;;;;;;5031338;28;20037;-60
2021/03/01 05:59:19;;;;;;;18.88;6.25;;;2.60;99.90;;;;;;5032441;28;20405;-61
2021/03/01 06:01:46;;;;;;;16.60;5.65;;;2.60;99.90;;;;;;5032134;28;20099;-61
2021/03/01 06:04:13;;;;;;;20.05;6.53;;;2.60;99.90;;;;;;5030011;28;20049;-61
2021/03/01 06:06:39;;;;;;;19.88;7.32;;;2.70;99.90;;;;;;5030696;28;20812;-61
2021/03/01 06:09:06;;;;;;;16.98;6.25;;;2.80;99.90;;;;;;5029810;28;20057;-61
2021/03/01 06:11:33;;;;;;;18.33;6.20;;;2.80;99.90;;;;;;5018442;28;20041;-61
2021/03/01 06:14:04;;;;;;;18.10;5.93;;;2.80;99.90;;;;;;5020399;28;20029;-62
2021/03/01 06:16:31;;;;;;;20.38;6.65;;;2.90;99.90;;;;;;5030294;28;20045;-61
2021/03/01 06:18:58;;;;;;;18.73;6.03;;;2.90;99.90;;;;;;5029008;28;20042;-61
2021/03/01 06:21:26;;;;;;;16.42;5.65;;;3.00;99.90;;;;;;5028305;28;20052;-61
2021/03/01 06:23:53;;;;;;;21.65;6.45;;;3.10;99.90;;;;;;5029942;28;20096;-61
2021/03/01 06:26:31;;;;;;;22.23;6.75;;;3.10;99.90;;;;;;5033477;28;20393;-61
2021/03/01 06:29:04;;;;;;;15.75;6.85;;;3.20;99.80;;;;;;5033362;28;20073;-61
2021/03/01 06:31:41;;;;;;;25.02;8.40;;;3.30;99.80;;;;;;5027523;28;20045;-61
2021/03/01 06:34:20;;;;;;;22.42;7.22;;;3.30;99.70;;;;;;5028468;28;20048;-61
2021/03/01 06:37:17;;;;;;;20.88;7.85;;;3.40;99.50;;;;;;5030984;28;20571;-61
2021/03/01 06:39:46;;;;;;;28.52;8.75;;;3.50;99.70;;;;;;5030553;28;20049;-61
2021/03/01 06:42:29;;;;;;;24.27;8.60;;;3.60;99.30;;;;;;5032004;28;20072;-61
2021/03/01 06:44:58;;;;;;;26.92;8.95;;;3.70;98.80;;;;;;5021606;28;20046;-61
2021/03/01 06:47:48;;;;;;;27.98;9.40;;;3.70;98.70;;;;;;5026347;28;20052;-62
2021/03/01 06:50:23;;;;;;;25.13;8.88;;;3.80;98.80;;;;;;5027968;28;20060;-61
2021/03/01 06:52:50;;;;;;;30.05;9.05;;;3.90;98.60;;;;;;5031747;28;20045;-61
2021/03/01 06:55:17;;;;;;;33.42;9.43;;;4.00;98.50;;;;;;5030003;28;20527;-61
2021/03/01 06:57:43;;;;;;;28.50;10.35;;;4.10;98.10;;;;;;5031236;28;20041;-61
2021/03/01 07:00:10;;;;;;;34.70;9.52;;;4.20;97.90;;;;;;5031078;28;20103;-61
2021/03/01 07:02:38;;;;;;;28.40;8.98;;;4.30;97.80;;;;;;5023253;28;20052;-61
2021/03/01 07:05:06;;;;;;;23.90;8.70;;;4.40;97.60;;;;;;5028244;28;20112;-61
2021/03/01 07:07:37;;;;;;;25.40;9.45;;;4.50;97.40;;;;;;5026960;28;20041;-61
2021/03/01 07:10:07;;;;;;;25.98;7.95;;;4.60;96.90;;;;;;5027778;28;20045;-61
2021/03/01 07:12:46;;;;;;;25.52;8.88;;;4.70;96.50;;;;;;5030486;28;20428;-61
2021/03/01 07:15:13;;;;;;;25.48;9.40;;;4.80;96.30;;;;;;5024185;28;20052;-61
2021/03/01 07:17:42;;;;;;;21.90;7.97;;;4.90;95.90;;;;;;5027615;28;20045;-61
2021/03/01 07:20:12;;;;;;;28.08;7.50;;;5.00;95.70;;;;;;5025810;28;20388;-61
2021/03/01 07:22:43;;;;;;;22.67;8.40;;;5.20;95.10;;;;;;5027917;28;20045;-61
2021/03/01 07:25:12;;;;;;;19.08;6.40;;;5.30;94.70;;;;;;5028622;28;20033;-61
2021/03/01 07:27:43;;;;;;;17.48;6.38;;;5.50;94.40;;;;;;5031040;28;20508;-61
2021/03/01 07:30:11;;;;;;;15.70;6.45;;;5.60;93.70;;;;;;5028452;28;20034;-62
2021/03/01 07:32:39;;;;;;;20.83;7.63;;;5.70;93.60;;;;;;5027386;28;20050;-61
2021/03/01 07:35:09;;;;;;;20.42;7.22;;;5.80;93.30;;;;;;5015855;28;20461;-61
2021/03/01 07:37:37;;;;;;;17.55;6.00;;;6.00;92.70;;;;;;5026171;28;20034;-61
2021/03/01 07:40:06;;;;;;;13.82;6.10;;;6.00;92.20;;;;;;5024446;28;20539;-62
2021/03/01 07:42:36;;;;;;;21.17;7.65;;;6.10;92.40;;;;;;5024780;28;20045;-61
2021/03/01 07:45:04;;;;;;;20.45;7.18;;;6.20;92.10;;;;;;5025591;28;20080;-61
2021/03/01 07:47:31;;;;;;;22.05;7.22;;;6.30;91.40;;;;;;5024929;28;20483;-61
2021/03/01 07:49:58;;;;;;;19.98;7.07;;;6.40;91.40;;;;;;5026565;28;20495;-61
2021/03/01 07:52:24;;;;;;;16.98;6.43;;;6.50;91.00;;;;;;5027269;28;20048;-61
2021/03/01 07:55:02;;;;;;;16.60;6.25;;;6.70;90.20;;;;;;5028117;28;20606;-61
2021/03/01 07:57:31;;;;;;;22.42;7.55;;;6.80;89.70;;;;;;5022729;28;20056;-61
2021/03/01 08:00:00;;;;;;;21.38;8.27;;;6.90;88.50;;;;;;5025746;28;20041;-61
2021/03/01 08:02:30;;;;;;;16.67;7.38;;;7.00;89.00;;;;;;5028502;28;20503;-61
2021/03/01 08:04:59;;;;;;;18.70;7.15;;;7.10;88.30;;;;;;5028647;28;20440;-61
2021/03/01 08:07:43;;;;;;;21.48;7.60;;;7.20;87.90;;;;;;5027673;28;20045;-61
2021/03/01 08:10:39;;;;;;;20.38;6.75;;;7.30;87.80;;;;;;5027716;28;20492;-61
2021/03/01 08:13:08;;;;;;;19.08;6.95;;;7.50;87.80;;;;;;5020787;28;20119;-61
2021/03/01 08:15:39;;;;;;;20.15;6.97;;;7.60;87.40;;;;;;5030414;28;21067;-61
2021/03/01 08:18:07;;;;;;;15.93;6.40;;;7.70;85.40;;;;;;5030789;28;20053;-61
2021/03/01 08:20:37;;;;;;;20.13;7.20;;;7.80;85.90;;;;;;5033156;28;20108;-61
2021/03/01 08:23:04;;;;;;;20.77;7.53;;;7.90;85.50;;;;;;5027927;28;20037;-61
2021/03/01 08:25:48;;;;;;;20.13;8.05;;;8.00;85.70;;;;;;5032789;28;20045;-61
2021/03/01 08:28:17;;;;;;;18.65;7.18;;;8.20;84.60;;;;;;5031213;28;20049;-61
2021/03/01 08:30:48;;;;;;;21.95;7.57;;;8.30;83.40;;;;;;5033263;28;20056;-61
2021/03/01 08:33:15;;;;;;;16.83;7.15;;;8.40;82.20;;;;;;5030441;28;20562;-61
2021/03/01 08:35:51;;;;;;;16.08;6.10;;;8.60;81.30;;;;;;5027017;28;20044;-61
2021/03/01 08:38:40;;;;;;;18.77;6.88;;;8.70;81.10;;;;;;5033490;28;20045;-61
2021/03/01 08:41:11;;;;;;;19.38;5.50;;;8.90;79.80;;;;;;5031571;28;20061;-61
2021/03/01 08:43:41;;;;;;;16.67;6.85;;;9.00;79.30;;;;;;5029014;28;20045;-61
2021/03/01 08:46:13;;;;;;;14.63;6.10;;;9.10;80.10;;;;;;5031389;28;20026;-61
2021/03/01 08:48:45;;;;;;;18.35;6.90;;;9.20;79.90;;;;;;5026720;28;20049;-62
2021/03/01 08:51:13;;;;;;;13.05;6.47;;;9.40;79.00;;;;;;5030959;28;20045;-61
2021/03/01 08:53:40;;;;;;;16.83;6.65;;;9.50;77.50;;;;;;5032001;28;20037;-62
2021/03/01 08:56:18;;;;;;;15.40;6.55;;;9.60;77.00;;;;;;5030197;28;20045;-61
2021/03/01 08:58:45;;;;;;;17.90;6.57;;;9.70;76.30;;;;;;5028686;28;20041;-61
2021/03/01 09:01:11;;;;;;;15.45;6.93;;;9.80;75.60;;;;;;5032198;28;20550;-62
2021/03/01 09:03:39;;;;;;;15.52;6.43;;;9.80;75.80;;;;;;5029991;28;20095;-61
2021/03/01 09:06:07;;;;;;;13.88;5.57;;;9.90;74.80;;;;;;5025500;28;20043;-61
2021/03/01 09:08:36;;;;;;;14.10;6.32;;;10.00;74.30;;;;;;5030240;28;20095;-61
2021/03/01 09:11:18;;;;;;;15.73;5.93;;;10.10;75.00;;;;;;5028635;28;20038;-61
2021/03/01 09:13:46;;;;;;;15.07;6.57;;;10.20;73.40;;;;;;5015283;28;20041;-61
2021/03/01 09:16:16;;;;;;;13.00;6.13;;;10.40;74.40;;;;;;5030320;28;20068;-61
2021/03/01 09:18:46;;;;;;;15.48;6.00;;;10.50;73.30;;;;;;5041741;28;20100;-62
2021/03/01 09:21:16;;;;;;;18.17;7.20;;;10.70;73.30;;;;;;5027738;28;20049;-62
2021/03/01 09:23:51;;;;;;;16.90;6.28;;;10.80;70.90;;;;;;5020285;28;20049;-62
2021/03/01 09:26:23;;;;;;;17.70;6.43;;;10.90;71.10;;;;;;5030231;28;20072;-61
2021/03/01 09:28:51;;;;;;;17.00;5.72;;;11.00;70.70;;;;;;5029732;28;20076;-62
2021/03/01 09:31:29;;;;;;;18.55;6.97;;;11.10;69.60;;;;;;5024304;28;20053;-62
2021/03/01 09:33:56;;;;;;;15.98;6.22;;;11.20;69.60;;;;;;5024131;28;20049;-62
2021/03/01 09:36:27;;;;;;;16.98;6.13;;;11.30;69.20;;;;;;5028986;28;20096;-63
2021/03/01 09:38:54;;;;;;;16.45;6.28;;;11.50;69.30;;;;;;5019458;28;20045;-62
2021/03/01 09:41:40;;;;;;;12.05;6.43;;;11.60;67.50;;;;;;5007911;28;20163;-65
2021/03/01 09:44:07;;;;;;;16.13;6.43;;;11.70;67.20;;;;;;5019816;28;20092;-62
2021/03/01 09:46:34;;;;;;;19.00;6.75;;;11.90;66.80;;;;;;5025566;28;20048;-61
2021/03/01 09:49:04;;;;;;;13.82;5.72;;;12.00;65.50;;;;;;5024323;28;20073;-62
2021/03/01 09:51:31;;;;;;;15.32;5.97;;;12.10;65.80;;;;;;5021995;28;20045;-62
2021/03/01 09:54:03;;;;;;;14.73;6.22;;;12.20;65.40;;;;;;5015616;28;20049;-62
2021/03/01 09:56:40;;;;;;;14.57;6.28;;;12.30;64.80;;;;;;5021968;28;20041;-62
2021/03/01 09:59:07;;;;;;;11.85;5.22;;;12.40;64.30;;;;;;5028029;28;20052;-63
2021/03/01 10:01:33;;;;;;;14.18;5.63;;;12.50;65.40;;;;;;5027227;28;20041;-63
2021/03/01 10:04:00;;;;;;;12.93;5.75;;;12.50;62.30;;;;;;5027878;28;20046;-63
2021/03/01 10:06:45;;;;;;;15.93;6.53;;;12.60;63.30;;;;;;5029036;28;20037;-63
2021/03/01 10:09:12;;;;;;;15.15;6.10;;;12.80;64.90;;;;;;5023968;28;20041;-62
2021/03/01 10:11:39;;;;;;;16.33;6.03;;;12.90;62.60;;;;;;5017936;28;20041;-62
2021/03/01 10:14:11;;;;;;;11.40;5.18;;;12.90;61.90;;;;;;5023446;28;20049;-62
2021/03/01 10:16:42;;;;;;;12.47;5.43;;;13.10;62.00;;;;;;5042424;28;20048;-63
2021/03/01 10:19:23;;;;;;;14.25;5.70;;;13.20;60.70;;;;;;5020394;28;20720;-63
2021/03/01 10:21:50;;;;;;;16.45;5.40;;;13.40;61.00;;;;;;5007503;28;20056;-63
2021/03/01 10:24:20;;;;;;;10.68;4.82;;;13.50;60.20;;;;;;5026809;28;20049;-62
2021/03/01 10:26:55;;;;;;;12.90;5.00;;;13.60;59.90;;;;;;5028029;28;20795;-63
2021/03/01 10:29:36;;;;;;;13.27;5.90;;;13.60;59.70;;;;;;5025197;28;20045;-62
2021/03/01 10:32:04;;;;;;;13.20;5.28;;;13.70;59.50;;;;;;5029716;28;20053;-62
2021/03/01 10:34:36;;;;;;;13.38;5.22;;;13.90;59.10;;;;;;5023483;28;20053;-63
2021/03/01 10:37:08;;;;;;;11.93;5.28;;;14.10;58.00;;;;;;5025471;28;20107;-63
2021/03/01 10:39:40;;;;;;;10.45;4.07;;;14.20;57.80;;;;;;5015971;28;20052;-63
2021/03/01 10:42:14;;;;;;;12.00;5.18;;;14.30;57.30;;;;;;5020886;28;20045;-63
2021/03/01 10:44:46;;;;;;;11.05;3.92;;;14.40;56.60;;;;;;5020670;28;20809;-62
2021/03/01 10:47:16;;;;;;;12.18;4.05;;;14.40;56.70;;;;;;5023496;28;20139;-63
2021/03/01 10:49:44;;;;;;;11.80;3.75;;;14.40;56.60;;;;;;5023168;28;20057;-62
2021/03/01 10:52:12;;;;;;;12.00;3.75;;;14.50;57.10;;;;;;5023339;28;20072;-63
2021/03/01 10:54:44;;;;;;;6.07;1.42;;;14.60;56.70;;;;;;5023864;28;20504;-63
2021/03/01 10:57:11;;;;;;;6.95;1.88;;;14.80;53.00;;;;;;5023512;28;20044;-63
2021/03/01 10:59:38;;;;;;;3.55;1.58;;;14.90;53.30;;;;;;5021646;28;20038;-62
2021/03/01 11:02:06;;;;;;;4.15;1.50;;;15.00;52.30;;;;;;5022920;28;20073;-63
2021/03/01 11:04:33;;;;;;;3.40;1.13;;;15.00;52.20;;;;;;5026117;28;20492;-63
2021/03/01 11:07:00;;;;;;;3.78;1.10;;;15.10;52.10;;;;;;5025690;28;20037;-63
2021/03/01 11:09:27;;;;;;;3.55;1.75;;;15.00;51.30;;;;;;5019473;28;20400;-63
2021/03/01 11:11:54;;;;;;;3.80;1.67;;;15.10;51.60;;;;;;5027756;28;20041;-63
2021/03/01 11:14:21;;;;;;;4.43;1.73;;;15.30;52.20;;;;;;5017132;28;20045;-65
2021/03/01 11:16:48;;;;;;;5.53;2.05;;;15.40;51.50;;;;;;5028071;28;20587;-64
2021/03/01 11:19:16;;;;;;;4.72;1.83;;;15.50;50.80;;;;;;5026485;28;20757;-65
2021/03/01 11:21:43;;;;;;;4.15;1.88;;;15.70;51.70;;;;;;5028721;28;20049;-63
2021/03/01 11:24:10;;;;;;;3.92;1.58;;;15.70;50.30;;;;;;5024374;28;20500;-64
2021/03/01 11:26:37;;;;;;;4.28;1.33;;;15.90;50.80;;;;;;5016268;28;20072;-63
2021/03/01 11:29:06;;;;;;;4.88;1.83;;;15.90;50.90;;;;;;5015851;28;20120;-63
2021/03/01 11:32:46;;;;;;;4.57;1.63;;;16.00;49.40;;;;;;5025726;28;20393;-63
2021/03/01 11:36:04;;;;;;;2.88;1.48;;;16.10;48.70;;;;;;5017754;28;20108;-63
2021/03/01 11:38:41;;;;;;;;;;;16.20;49.00;;;;;;5022372;28;20056;-63
2021/03/01 11:41:08;;;;;;;4.00;1.50;;;16.40;47.60;;;;;;5023005;28;19929;-63
2021/03/01 11:43:47;;;;;;;3.75;1.30;;;16.50;47.80;;;;;;5018162;28;20053;-63
2021/03/01 11:46:15;;;;;;;4.55;1.27;;;16.60;47.60;;;;;;5022500;28;20041;-63
2021/03/01 11:48:42;;;;;;;2.58;1.10;;;16.70;47.50;;;;;;5026506;28;20041;-63
2021/03/01 11:51:10;;;;;;;4.63;1.50;;;16.60;46.50;;;;;;5015547;28;20670;-63
2021/03/01 11:53:38;;;;;;;4.82;1.60;;;16.50;47.30;;;;;;5022958;28;20049;-63
2021/03/01 11:56:07;;;;;;;5.22;2.28;;;16.70;47.90;;;;;;5021758;28;20048;-63
2021/03/01 11:58:35;;;;;;;3.22;1.33;;;16.90;46.40;;;;;;5016481;28;20451;-63
2021/03/01 12:01:02;;;;;;;3.22;1.35;;;17.10;47.40;;;;;;5024186;28;20543;-63
2021/03/01 12:03:31;;;;;;;4.90;1.40;;;17.30;46.50;;;;;;5023601;28;20120;-63
2021/03/01 12:05:58;;;;;;;3.45;1.60;;;17.40;46.10;;;;;;5019943;28;20590;-63
2021/03/01 12:08:25;;;;;;;4.65;1.70;;;17.40;46.30;;;;;;5023645;28;20095;-64
2021/03/01 12:10:52;;;;;;;4.25;1.85;;;17.40;45.50;;;;;;5025931;28;20053;-63
2021/03/01 12:13:19;;;;;;;6.43;1.75;;;17.40;45.70;;;;;;5023306;28;20038;-64
2021/03/01 12:15:46;;;;;;;3.78;1.50;;;17.40;45.00;;;;;;5024563;28;20092;-64
2021/03/01 12:18:13;;;;;;;5.15;2.08;;;17.60;45.90;;;;;;5024148;28;20052;-64
2021/03/01 12:20:40;;;;;;;5.07;2.35;;;17.60;45.90;;;;;;5024220;28;20104;-63
2021/03/01 12:23:07;;;;;;;5.28;2.08;;;17.70;45.70;;;;;;5005065;28;20667;-64
2021/03/01 12:25:34;;;;;;;5.47;1.88;;;17.90;45.20;;;;;;5025953;28;20562;-64
2021/03/01 12:28:01;;;;;;;4.55;1.92;;;18.30;45.20;;;;;;5020644;28;20513;-64
2021/03/01 12:30:27;;;;;;;6.05;2.53;;;18.70;44.50;;;;;;5022882;28;20052;-63
2021/03/01 12:33:00;;;;;;;7.07;2.17;;;18.90;44.30;;;;;;5024355;28;20053;-64
2021/03/01 12:35:29;;;;;;;7.32;1.95;;;19.00;43.40;;;;;;5023582;28;20056;-64
2021/03/01 12:37:56;;;;;;;7.28;2.05;;;19.20;42.80;;;;;;5011547;28;20048;-64
2021/03/01 12:40:23;;;;;;;4.88;2.38;;;19.50;42.20;;;;;;5021157;28;20546;-64
2021/03/01 12:42:49;;;;;;;4.85;2.33;;;19.70;41.60;;;;;;5024681;28;20046;-63
2021/03/01 12:45:16;;;;;;;6.82;2.40;;;19.80;42.10;;;;;;5018411;28;20492;-64
2021/03/01 12:47:43;;;;;;;6.57;2.95;;;19.90;41.80;;;;;;5024008;28;20412;-63
2021/03/01 12:50:11;;;;;;;6.00;2.97;;;19.90;41.60;;;;;;5026398;28;20054;-64
2021/03/01 12:52:38;;;;;;;5.18;1.80;;;19.90;42.00;;;;;;5024279;28;20057;-64
2021/03/01 12:55:05;;;;;;;5.68;2.30;;;20.10;41.60;;;;;;5028985;28;20053;-63
2021/03/01 12:57:32;;;;;;;8.90;2.90;;;20.50;40.30;;;;;;5023522;28;20073;-63
2021/03/01 12:59:58;;;;;;;7.72;3.08;;;20.70;40.60;;;;;;5027637;28;20447;-64